createdAt,value
2018-09-05T00:00:16.253Z,11.53
2018-09-05T00:02:44.595Z,12.30
2018-09-05T00:05:12.894Z,11.83
2018-09-05T00:07:41.236Z,11.73
2018-09-05T00:10:09.743Z,12.07
2018-09-05T00:12:38.118Z,12.27
2018-09-05T00:15:06.939Z,12.60
2018-09-05T00:17:35.287Z,12.73
2018-09-05T00:20:03.639Z,12.10
2018-09-05T00:22:31.988Z,11.97
2018-09-05T00:25:00.359Z,11.73
2018-09-05T00:27:28.676Z,12.13
2018-09-05T00:29:57.189Z,12.63
2018-09-05T00:32:25.563Z,12.20
2018-09-05T00:34:53.898Z,13.10
2018-09-05T00:37:22.429Z,11.53
2018-09-05T00:39:50.804Z,12.17
2018-09-05T00:42:19.254Z,12.33
2018-09-05T00:44:47.710Z,12.10
2018-09-05T00:47:16.103Z,11.83
2018-09-05T00:49:44.538Z,11.37
2018-09-05T00:52:12.850Z,12.27
2018-09-05T00:54:41.251Z,11.63
2018-09-05T00:57:09.611Z,11.70
2018-09-05T00:59:38.007Z,11.23
2018-09-05T01:02:06.378Z,11.43
2018-09-05T01:04:34.856Z,11.43
2018-09-05T01:07:34.443Z,11.57
2018-09-05T01:10:02.814Z,12.63
2018-09-05T01:12:32.032Z,10.93
2018-09-05T01:15:00.474Z,10.83
2018-09-05T01:17:29.128Z,10.20
2018-09-05T01:19:57.521Z,10.40
2018-09-05T01:22:25.975Z,11.10
2018-09-05T01:24:54.426Z,11.20
2018-09-05T01:27:22.854Z,10.50
2018-09-05T01:29:51.161Z,12.13
2018-09-05T01:32:19.514Z,12.17
2018-09-05T01:34:47.945Z,12.13
2018-09-05T01:37:16.287Z,11.73
2018-09-05T01:39:44.613Z,10.37
2018-09-05T01:42:12.942Z,11.33
2018-09-05T01:44:41.451Z,11.43
2018-09-05T01:47:09.766Z,11.13
2018-09-05T01:49:38.119Z,11.87
2018-09-05T01:52:06.486Z,11.40
2018-09-05T01:54:34.803Z,11.50
2018-09-05T01:57:03.138Z,11.57
2018-09-05T01:59:31.479Z,10.73
2018-09-05T02:01:59.983Z,10.37
2018-09-05T02:04:28.434Z,11.10
2018-09-05T02:06:56.763Z,10.80
2018-09-05T02:09:25.175Z,11.37
2018-09-05T02:11:53.535Z,11.67
2018-09-05T02:14:21.862Z,11.47
2018-09-05T02:16:50.199Z,11.80
2018-09-05T02:19:18.617Z,11.57
2018-09-05T02:21:46.950Z,10.57
2018-09-05T02:24:15.371Z,11.93
2018-09-05T02:26:43.867Z,11.33
2018-09-05T02:29:12.227Z,12.53
2018-09-05T02:31:40.635Z,11.17
2018-09-05T02:34:09.047Z,10.47
2018-09-05T02:36:37.375Z,10.50
2018-09-05T02:39:08.313Z,10.90
2018-09-05T02:41:36.690Z,11.97
2018-09-05T02:44:10.363Z,11.07
2018-09-05T02:46:38.659Z,10.70
2018-09-05T02:49:07.024Z,11.20
2018-09-05T02:51:35.343Z,11.50
2018-09-05T02:54:03.983Z,11.50
2018-09-05T02:56:32.275Z,10.60
2018-09-05T02:59:00.593Z,11.27
2018-09-05T03:01:28.954Z,11.00
2018-09-05T03:03:57.317Z,10.40
2018-09-05T03:06:25.650Z,10.67
2018-09-05T03:08:54.025Z,10.37
2018-09-05T03:11:22.346Z,10.63
2018-09-05T03:13:50.695Z,10.40
2018-09-05T03:16:19.015Z,10.93
2018-09-05T03:18:47.425Z,11.07
2018-09-05T03:21:15.768Z,10.87
2018-09-05T03:23:44.060Z,10.93
2018-09-05T03:26:12.401Z,10.57
2018-09-05T03:28:40.765Z,11.07
2018-09-05T03:31:09.281Z,10.70
2018-09-05T03:33:37.576Z,10.53
2018-09-05T03:36:05.925Z,11.03
2018-09-05T03:38:34.293Z,10.20
2018-09-05T03:41:02.692Z,10.43
2018-09-05T03:43:31.008Z,10.00
2018-09-05T03:45:59.361Z,9.90
2018-09-05T03:48:27.737Z,11.10
2018-09-05T03:50:56.078Z,11.03
2018-09-05T03:53:24.821Z,11.70
2018-09-05T03:55:53.952Z,10.70
2018-09-05T03:58:22.273Z,11.10
2018-09-05T04:00:50.643Z,10.27
2018-09-05T04:03:18.939Z,9.93
2018-09-05T04:05:47.247Z,9.83
2018-09-05T04:08:15.590Z,10.57
2018-09-05T04:10:43.940Z,10.67
2018-09-05T04:13:12.275Z,10.33
2018-09-05T04:15:40.632Z,10.87
2018-09-05T04:18:08.996Z,11.37
2018-09-05T04:20:37.358Z,11.17
2018-09-05T04:23:09.309Z,10.87
2018-09-05T04:25:40.313Z,10.27
2018-09-05T04:28:10.991Z,9.63
2018-09-05T04:30:42.098Z,9.50
2018-09-05T04:33:14.099Z,8.83
2018-09-05T04:35:45.100Z,9.57
2018-09-05T04:38:25.257Z,9.90
2018-09-05T04:40:57.798Z,9.53
2018-09-05T04:43:31.386Z,9.60
2018-09-05T04:46:02.962Z,8.57
2018-09-05T04:48:34.234Z,9.80
2018-09-05T04:51:06.128Z,10.00
2018-09-05T04:53:36.805Z,10.30
2018-09-05T04:56:09.285Z,11.10
2018-09-05T04:58:41.011Z,10.47
2018-09-05T05:01:11.465Z,10.63
2018-09-05T05:03:42.397Z,10.00
2018-09-05T05:06:14.386Z,9.53
2018-09-05T05:08:47.281Z,8.77
2018-09-05T05:11:21.461Z,9.27
2018-09-05T05:13:54.691Z,8.60
2018-09-05T05:16:28.069Z,10.23
2018-09-05T05:18:57.250Z,11.47
2018-09-05T05:21:26.200Z,11.00
2018-09-05T05:24:24.343Z,11.90
2018-09-05T05:27:19.541Z,12.27
2018-09-05T05:29:47.919Z,10.70
2018-09-05T05:32:16.276Z,10.70
2018-09-05T05:34:44.598Z,11.20
2018-09-05T05:37:12.987Z,10.30
2018-09-05T05:39:42.047Z,9.43
2018-09-05T05:42:10.383Z,10.27
2018-09-05T05:44:38.687Z,11.10
2018-09-05T05:47:07.026Z,11.03
2018-09-05T05:49:35.399Z,11.67
2018-09-05T05:52:03.852Z,12.20
2018-09-05T05:54:32.264Z,11.23
2018-09-05T05:57:00.654Z,11.87
2018-09-05T05:59:28.974Z,11.03
2018-09-05T06:01:57.331Z,11.27
2018-09-05T06:04:25.631Z,11.30
2018-09-05T06:06:54.055Z,11.60
2018-09-05T06:09:22.378Z,11.20
2018-09-05T06:11:50.727Z,11.47
2018-09-05T06:14:19.042Z,10.63
2018-09-05T06:16:47.419Z,10.83
2018-09-05T06:19:15.752Z,11.00
2018-09-05T06:21:44.073Z,10.50
2018-09-05T06:24:12.426Z,10.83
2018-09-05T06:26:40.864Z,10.30
2018-09-05T06:29:09.291Z,10.10
2018-09-05T06:31:37.804Z,9.43
2018-09-05T06:34:06.187Z,9.33
2018-09-05T06:36:34.595Z,10.00
2018-09-05T06:39:02.940Z,9.17
2018-09-05T06:42:05.339Z,10.03
2018-09-05T06:44:33.675Z,10.07
2018-09-05T06:47:02.029Z,10.40
2018-09-05T06:49:30.428Z,10.60
2018-09-05T06:51:58.832Z,10.50
2018-09-05T06:54:27.202Z,9.90
2018-09-05T06:56:55.629Z,10.07
2018-09-05T06:59:23.903Z,9.23
2018-09-05T07:01:52.228Z,9.50
2018-09-05T07:04:20.543Z,9.53
2018-09-05T07:06:49.033Z,9.27
2018-09-05T07:09:17.631Z,10.03
2018-09-05T07:11:46.020Z,9.37
2018-09-05T07:14:14.604Z,8.50
2018-09-05T07:16:42.886Z,9.03
2018-09-05T07:19:12.488Z,9.67
2018-09-05T07:21:40.845Z,9.27
2018-09-05T07:24:09.153Z,8.63
2018-09-05T07:26:37.950Z,8.70
2018-09-05T07:29:06.589Z,8.87
2018-09-05T07:31:34.930Z,8.43
2018-09-05T07:34:03.323Z,8.80
2018-09-05T07:36:31.716Z,9.10
2018-09-05T07:39:00.144Z,9.07
2018-09-05T07:41:28.525Z,9.07
2018-09-05T07:43:56.836Z,8.63
2018-09-05T07:46:25.163Z,8.13
2018-09-05T07:48:53.511Z,7.97
2018-09-05T07:51:21.816Z,8.73
2018-09-05T07:53:50.251Z,8.80
2018-09-05T07:56:18.803Z,8.40
2018-09-05T07:58:47.271Z,9.13
2018-09-05T08:01:15.605Z,9.20
2018-09-05T08:03:44.199Z,8.68
2018-09-05T08:06:12.643Z,8.97
2018-09-05T08:08:41.039Z,8.83
2018-09-05T08:11:09.325Z,8.20
2018-09-05T08:13:37.867Z,8.97
2018-09-05T08:16:06.543Z,8.40
2018-09-05T08:18:34.868Z,8.48
2018-09-05T08:21:03.197Z,8.37
2018-09-05T08:23:31.539Z,9.23
2018-09-05T08:25:59.823Z,9.23
2018-09-05T08:28:28.194Z,9.10
2018-09-05T08:30:56.550Z,9.43
2018-09-05T08:33:24.844Z,9.87
2018-09-05T08:35:53.364Z,8.30
2018-09-05T08:38:21.613Z,9.95
2018-09-05T08:40:50.765Z,9.33
2018-09-05T08:43:19.219Z,9.15
2018-09-05T08:45:47.866Z,9.20
2018-09-05T08:48:16.067Z,8.93
2018-09-05T08:50:44.325Z,8.93
2018-09-05T08:53:12.766Z,8.93
2018-09-05T08:55:41.103Z,9.20
2018-09-05T08:58:09.490Z,8.93
2018-09-05T09:00:37.886Z,9.10
2018-09-05T09:03:06.284Z,9.40
2018-09-05T09:05:34.724Z,9.10
2018-09-05T09:08:03.096Z,8.63
2018-09-05T09:10:31.449Z,8.58
2018-09-05T09:12:59.759Z,8.00
2018-09-05T09:15:28.038Z,9.55
2018-09-05T09:17:56.353Z,8.98
2018-09-05T09:20:24.667Z,8.65
2018-09-05T09:22:53.074Z,9.00
2018-09-05T09:25:21.407Z,8.95
2018-09-05T09:27:49.791Z,8.70
2018-09-05T09:30:18.103Z,8.98
2018-09-05T09:32:46.385Z,8.60
2018-09-05T09:35:14.759Z,8.50
2018-09-05T09:37:43.049Z,8.73
2018-09-05T09:40:11.450Z,9.18
2018-09-05T09:42:39.734Z,9.43
2018-09-05T09:45:08.070Z,8.65
2018-09-05T09:47:36.383Z,8.23
2018-09-05T09:50:04.799Z,8.45
2018-09-05T09:52:37.369Z,8.50
2018-09-05T09:55:07.049Z,10.98
2018-09-05T09:57:35.403Z,9.75
2018-09-05T10:00:03.769Z,9.43
2018-09-05T10:02:37.635Z,8.53
2018-09-05T10:05:11.435Z,7.78
2018-09-05T10:07:45.118Z,7.70
2018-09-05T10:10:19.093Z,7.50
2018-09-05T10:12:49.907Z,8.35
2018-09-05T10:15:23.456Z,9.05
2018-09-05T10:17:57.051Z,8.15
2018-09-05T10:20:25.430Z,8.00
2018-09-05T10:22:53.820Z,7.72
2018-09-05T10:25:22.158Z,8.25
2018-09-05T10:27:50.468Z,7.58
2018-09-05T10:30:18.783Z,7.30
2018-09-05T10:32:47.135Z,7.78
2018-09-05T10:35:15.436Z,7.55
2018-09-05T10:37:43.746Z,7.97
2018-09-05T10:40:12.042Z,8.20
2018-09-05T10:42:40.366Z,8.78
2018-09-05T10:45:08.665Z,8.88
2018-09-05T10:47:36.959Z,8.43
2018-09-05T10:50:05.255Z,8.45
2018-09-05T10:52:33.565Z,8.40
2018-09-05T10:55:01.882Z,9.18
2018-09-05T10:57:30.220Z,8.23
2018-09-05T10:59:58.652Z,8.20
2018-09-05T11:02:27.054Z,8.88
2018-09-05T11:04:55.363Z,8.13
2018-09-05T11:07:23.709Z,8.30
2018-09-05T11:09:52.032Z,8.53
2018-09-05T11:12:20.348Z,8.43
2018-09-05T11:14:48.713Z,9.13
2018-09-05T11:17:17.018Z,8.58
2018-09-05T11:19:45.390Z,8.15
2018-09-05T11:22:13.730Z,8.60
2018-09-05T11:24:42.068Z,8.48
2018-09-05T11:27:10.511Z,9.20
2018-09-05T11:29:39.072Z,8.70
2018-09-05T11:32:08.109Z,9.20
2018-09-05T11:34:36.640Z,8.35
2018-09-05T11:37:05.308Z,8.40
2018-09-05T11:39:33.790Z,9.08
2018-09-05T11:42:02.203Z,8.53
2018-09-05T11:44:30.575Z,8.23
2018-09-05T11:46:58.888Z,8.18
2018-09-05T11:49:27.311Z,8.85
2018-09-05T11:51:55.641Z,7.92
2018-09-05T11:54:24.086Z,8.60
2018-09-05T11:56:52.546Z,7.97
2018-09-05T11:59:20.958Z,7.83
2018-09-05T12:01:49.298Z,8.40
2018-09-05T12:04:17.645Z,8.18
2018-09-05T12:06:46.034Z,8.05
2018-09-05T12:09:14.454Z,8.48
2018-09-05T12:11:42.963Z,8.00
2018-09-05T12:14:11.496Z,7.95
2018-09-05T12:16:39.871Z,7.60
2018-09-05T12:19:08.535Z,8.10
2018-09-05T12:21:37.245Z,7.80
2018-09-05T12:24:05.578Z,7.90
2018-09-05T12:26:34.081Z,7.50
2018-09-05T12:29:04.287Z,8.20
2018-09-05T12:31:32.890Z,7.62
2018-09-05T12:34:01.227Z,7.33
2018-09-05T12:36:29.717Z,7.15
2018-09-05T12:38:58.062Z,7.17
2018-09-05T12:41:26.386Z,7.10
2018-09-05T12:43:54.794Z,7.22
2018-09-05T12:46:23.157Z,7.65
2018-09-05T12:48:51.460Z,7.22
2018-09-05T12:51:19.834Z,7.28
2018-09-05T12:53:48.164Z,7.55
2018-09-05T12:56:16.624Z,7.78
2018-09-05T12:58:44.945Z,7.33
2018-09-05T13:01:13.352Z,6.87
2018-09-05T13:03:41.762Z,6.80
2018-09-05T13:06:10.126Z,6.70
2018-09-05T13:08:38.454Z,6.50
2018-09-05T13:11:06.855Z,7.12
2018-09-05T13:13:35.167Z,7.05
2018-09-05T13:16:03.577Z,6.95
2018-09-05T13:18:31.899Z,6.85
2018-09-05T13:21:00.901Z,7.42
2018-09-05T13:23:29.258Z,6.75
2018-09-05T13:25:57.539Z,6.85
2018-09-05T13:28:25.890Z,7.22
2018-09-05T13:30:54.277Z,7.15
2018-09-05T13:33:22.706Z,7.00
2018-09-05T13:35:51.078Z,6.70
2018-09-05T13:38:19.386Z,7.10
2018-09-05T13:40:47.745Z,6.30
2018-09-05T13:43:16.094Z,5.97
2018-09-05T13:45:44.471Z,6.90
2018-09-05T13:48:12.897Z,6.42
2018-09-05T13:50:41.417Z,7.08
2018-09-05T13:53:09.927Z,6.33
2018-09-05T13:55:38.426Z,6.80
2018-09-05T13:58:06.860Z,7.03
2018-09-05T14:00:35.407Z,6.62
2018-09-05T14:03:03.746Z,6.50
2018-09-05T14:05:32.124Z,6.50
2018-09-05T14:08:00.880Z,6.50
2018-09-05T14:10:29.351Z,5.90
2018-09-05T14:12:57.657Z,6.12
2018-09-05T14:15:26.231Z,6.08
2018-09-05T14:17:54.825Z,6.33
2018-09-05T14:20:23.312Z,6.72
2018-09-05T14:22:51.777Z,6.45
2018-09-05T14:25:20.338Z,6.50
2018-09-05T14:27:48.712Z,6.33
2018-09-05T14:30:17.328Z,6.40
2018-09-05T14:32:45.687Z,6.37
2018-09-05T14:35:14.400Z,6.72
2018-09-05T14:37:42.730Z,6.10
2018-09-05T14:40:11.284Z,6.25
2018-09-05T14:42:39.490Z,6.30
2018-09-05T14:45:08.026Z,6.33
2018-09-05T14:47:36.461Z,6.10
2018-09-05T14:50:05.220Z,6.53
2018-09-05T14:52:33.718Z,6.25
2018-09-05T14:55:02.310Z,6.20
2018-09-05T14:57:31.005Z,5.87
2018-09-05T14:59:59.482Z,5.62
2018-09-05T15:02:27.894Z,6.03
2018-09-05T15:04:56.534Z,5.97
2018-09-05T15:07:25.126Z,5.78
2018-09-05T15:09:53.660Z,6.20
2018-09-05T15:12:22.102Z,6.25
2018-09-05T15:14:50.466Z,6.08
2018-09-05T15:17:18.966Z,6.72
2018-09-05T15:19:47.407Z,6.10
2018-09-05T15:22:15.962Z,7.10
2018-09-05T15:24:44.270Z,5.83
2018-09-05T15:27:12.549Z,6.47
2018-09-05T15:29:40.952Z,6.75
2018-09-05T15:32:09.490Z,6.95
2018-09-05T15:34:37.998Z,6.67
2018-09-05T15:37:06.420Z,6.50
2018-09-05T15:39:34.869Z,6.20
2018-09-05T15:42:03.418Z,6.75
2018-09-05T15:44:31.880Z,5.65
2018-09-05T15:47:00.262Z,6.25
2018-09-05T15:49:28.668Z,6.58
2018-09-05T15:51:57.146Z,5.70
2018-09-05T15:54:26.698Z,6.00
2018-09-05T15:56:55.068Z,6.58
2018-09-05T15:59:24.077Z,5.67
2018-09-05T16:01:53.408Z,6.12
2018-09-05T16:04:21.714Z,6.10
2018-09-05T16:06:50.066Z,5.70
2018-09-05T16:09:18.409Z,5.90
2018-09-05T16:11:46.876Z,6.28
2018-09-05T16:14:15.222Z,6.10
2018-09-05T16:16:43.688Z,6.15
2018-09-05T16:19:11.963Z,6.03
2018-09-05T16:21:40.365Z,6.28
2018-09-05T16:24:08.762Z,5.95
2018-09-05T16:26:37.114Z,6.05
2018-09-05T16:29:05.458Z,5.92
2018-09-05T16:31:35.430Z,6.10
2018-09-05T16:34:04.491Z,6.35
2018-09-05T16:36:32.903Z,6.20
2018-09-05T16:39:03.443Z,5.85
2018-09-05T16:41:32.118Z,7.15
2018-09-05T16:44:01.731Z,6.55
2018-09-05T16:46:31.767Z,6.20
2018-09-05T16:49:02.683Z,6.70
2018-09-05T16:51:32.680Z,6.03
2018-09-05T16:54:03.282Z,6.12
2018-09-05T16:56:34.799Z,6.95
2018-09-05T16:59:06.046Z,5.83
2018-09-05T17:01:38.403Z,6.22
2018-09-05T17:04:10.268Z,5.75
2018-09-05T17:06:40.908Z,5.72
2018-09-05T17:09:13.134Z,5.90
2018-09-05T17:11:43.879Z,6.10
2018-09-05T17:14:15.646Z,5.85
2018-09-05T17:16:46.200Z,5.30
2018-09-05T17:19:18.010Z,5.58
2018-09-05T17:21:48.089Z,5.50
2018-09-05T17:24:20.491Z,5.78
2018-09-05T17:26:51.136Z,5.30
2018-09-05T17:29:21.101Z,5.92
2018-09-05T17:31:52.442Z,6.20
2018-09-05T17:34:23.995Z,5.65
2018-09-05T17:36:56.875Z,6.25
2018-09-05T17:39:29.685Z,6.53
2018-09-05T17:42:05.209Z,6.40
2018-09-05T17:44:33.798Z,6.75
2018-09-05T17:47:02.404Z,6.65
2018-09-05T17:49:30.804Z,6.53
2018-09-05T17:51:59.132Z,6.92
2018-09-05T17:54:29.278Z,7.75
2018-09-05T17:56:57.654Z,7.42
2018-09-05T17:59:26.075Z,7.87
2018-09-05T18:01:54.512Z,7.67
2018-09-05T18:04:27.091Z,7.65
2018-09-05T18:06:57.599Z,7.30
2018-09-05T18:09:31.400Z,7.92
2018-09-05T18:15:01.438Z,7.65
2018-09-05T18:17:34.851Z,8.18
2018-09-05T18:20:05.505Z,8.38
2018-09-05T18:22:35.808Z,9.18
2018-09-05T18:25:07.184Z,8.73
2018-09-05T18:27:37.876Z,8.88
2018-09-05T18:30:09.875Z,8.75
2018-09-05T18:32:41.151Z,9.48
2018-09-05T18:35:11.595Z,8.83
2018-09-05T18:37:41.218Z,9.30
2018-09-05T18:40:12.526Z,9.03
2018-09-05T18:42:42.613Z,9.55
2018-09-05T18:45:13.381Z,9.63
2018-09-05T18:47:43.866Z,9.25
2018-09-05T18:50:15.958Z,8.93
2018-09-05T18:52:47.273Z,9.05
2018-09-05T18:55:17.952Z,9.48
2018-09-05T18:57:49.413Z,9.70
2018-09-05T19:00:20.059Z,9.35
2018-09-05T19:02:50.846Z,10.58
2018-09-05T19:05:20.954Z,9.68
2018-09-05T19:07:53.206Z,9.73
2018-09-05T19:10:23.488Z,9.10
2018-09-05T19:12:55.022Z,9.88
2018-09-05T19:15:26.298Z,8.43
2018-09-05T19:17:57.269Z,9.13
2018-09-05T19:20:28.374Z,8.98
2018-09-05T19:22:59.438Z,9.18
2018-09-05T19:25:30.768Z,8.83
2018-09-05T19:28:01.036Z,8.50
2018-09-05T19:30:32.131Z,9.13
2018-09-05T19:33:01.968Z,8.98
2018-09-05T19:35:32.114Z,9.50
2018-09-05T19:38:03.166Z,8.50
2018-09-05T19:40:34.142Z,9.30
2018-09-05T19:43:05.500Z,9.30
2018-09-05T19:45:36.866Z,8.55
2018-09-05T19:48:07.705Z,9.30
2018-09-05T19:50:39.444Z,9.00
2018-09-05T19:53:11.139Z,9.17
2018-09-05T19:55:43.996Z,9.60
2018-09-05T19:58:16.498Z,9.23
2018-09-05T20:00:46.972Z,8.60
2018-09-05T20:03:18.295Z,8.30
2018-09-05T20:05:49.044Z,9.03
2018-09-05T20:08:19.858Z,8.90
2018-09-05T20:10:53.248Z,9.07
2018-09-05T20:13:25.564Z,8.67
2018-09-05T20:15:59.483Z,8.40
2018-09-05T20:18:35.495Z,8.97
2018-09-05T20:21:06.140Z,8.87
2018-09-05T20:23:35.399Z,8.90
2018-09-05T20:26:03.974Z,9.07
2018-09-05T20:28:32.568Z,8.63
2018-09-05T20:31:01.057Z,8.63
2018-09-05T20:33:29.958Z,9.08
2018-09-05T20:35:58.503Z,8.87
2018-09-05T20:38:26.956Z,8.50
2018-09-05T20:40:55.237Z,8.37
2018-09-05T20:43:23.961Z,9.20
2018-09-05T20:45:52.350Z,8.93
2018-09-05T20:48:20.843Z,8.80
2018-09-05T20:50:49.193Z,8.70
2018-09-05T20:53:18.939Z,9.07
2018-09-05T20:55:47.277Z,9.10
2018-09-05T20:58:15.658Z,9.20
2018-09-05T21:00:43.966Z,8.57
2018-09-05T21:03:12.737Z,8.20
2018-09-05T21:05:41.071Z,8.67
2018-09-05T21:08:10.080Z,9.20
2018-09-05T21:10:38.758Z,9.57
2018-09-05T21:13:07.057Z,8.97
2018-09-05T21:15:35.390Z,9.20
2018-09-05T21:18:03.775Z,9.57
2018-09-05T21:20:32.062Z,8.50
2018-09-05T21:23:00.799Z,7.97
2018-09-05T21:25:29.426Z,7.70
2018-09-05T21:27:57.768Z,8.37
2018-09-05T21:30:26.157Z,8.70
2018-09-05T21:32:54.505Z,9.07
2018-09-05T21:35:22.860Z,8.07
2018-09-05T21:37:51.221Z,8.30
2018-09-05T21:40:19.555Z,8.23
2018-09-05T21:42:47.961Z,8.47
2018-09-05T21:45:16.286Z,8.40
2018-09-05T21:47:44.578Z,7.80
2018-09-05T21:50:12.915Z,8.13
2018-09-05T21:52:41.295Z,8.23
2018-09-05T21:55:09.726Z,9.20
2018-09-05T21:57:38.082Z,8.37
2018-09-05T22:00:08.526Z,8.07
2018-09-05T22:02:36.918Z,8.37
2018-09-05T22:05:05.418Z,7.93
2018-09-05T22:07:33.735Z,7.90
2018-09-05T22:10:02.134Z,8.47
2018-09-05T22:12:30.529Z,8.27
2018-09-05T22:14:58.864Z,7.70
2018-09-05T22:17:27.190Z,8.23
2018-09-05T22:19:55.588Z,8.50
2018-09-05T22:22:23.838Z,8.17
2018-09-05T22:24:52.153Z,8.40
2018-09-05T22:27:20.444Z,7.87
2018-09-05T22:29:48.708Z,8.40
2018-09-05T22:32:17.063Z,8.80
2018-09-05T22:34:45.344Z,8.47
2018-09-05T22:37:13.592Z,7.87
2018-09-05T22:39:41.883Z,8.70
2018-09-05T22:42:12.336Z,8.70
2018-09-05T22:44:52.558Z,8.87
2018-09-05T22:47:32.185Z,8.57
2018-09-05T22:50:17.192Z,7.87
2018-09-05T22:53:14.728Z,7.90
2018-09-05T22:58:02.694Z,8.13
2018-09-05T23:00:45.690Z,8.40
2018-09-05T23:03:24.395Z,7.63
2018-09-05T23:08:08.794Z,8.43
2018-09-05T23:10:48.433Z,7.77
2018-09-05T23:14:26.592Z,8.40
2018-09-05T23:19:42.006Z,8.30
2018-09-05T23:22:10.285Z,8.10
2018-09-05T23:24:38.588Z,7.90
2018-09-05T23:27:06.919Z,8.73
2018-09-05T23:29:35.169Z,8.40
2018-09-05T23:32:03.462Z,8.53
2018-09-05T23:34:31.720Z,8.27
2018-09-05T23:37:00.062Z,8.70
2018-09-05T23:39:28.394Z,7.87
2018-09-05T23:41:56.718Z,8.00
2018-09-05T23:44:24.993Z,7.90
2018-09-05T23:46:53.314Z,7.73
2018-09-05T23:49:21.574Z,7.97
2018-09-05T23:51:49.843Z,8.13
2018-09-05T23:54:18.211Z,8.37
2018-09-05T23:56:46.501Z,7.60
2018-09-05T23:59:14.793Z,8.47
